Time;durP1;ratioP1;P1;durP2;ratioP2;P2;SDS_P1;SDS_P2;PMS_P1;PMS_P2;Temp;Humidity;BMP_temperature;BMP_pressure;BME280_temperature;BME280_humidity;BME280_pressure;Samples;Min_cycle;Max_cycle;Signal;HPM_P1;HPM_P2
2021/05/14 00:01:20;;;;;;;15.60;13.55;;;13.30;99.90;;;;;;4964231;28;20030;-76
2021/05/14 00:03:45;;;;;;;16.50;14.80;;;13.30;99.90;;;;;;4960542;28;20034;-76
2021/05/14 00:06:11;;;;;;;17.13;14.98;;;13.30;99.90;;;;;;4966552;28;20476;-76
2021/05/14 00:08:37;;;;;;;17.10;15.32;;;13.30;99.90;;;;;;4970306;28;20050;-77
2021/05/14 00:11:03;;;;;;;17.33;15.07;;;13.30;99.90;;;;;;4965138;28;20038;-77
2021/05/14 00:13:28;;;;;;;21.73;15.30;;;13.20;99.90;;;;;;4968528;28;20038;-76
2021/05/14 00:15:54;;;;;;;16.05;14.40;;;13.10;99.90;;;;;;4971985;28;20023;-76
2021/05/14 00:18:20;;;;;;;17.13;14.95;;;13.10;99.90;;;;;;4960246;28;20030;-76
2021/05/14 00:20:46;;;;;;;19.35;16.63;;;13.00;99.90;;;;;;4967626;28;20026;-76
2021/05/14 00:23:13;;;;;;;16.20;14.57;;;13.00;99.90;;;;;;4972016;28;20030;-76
2021/05/14 00:25:39;;;;;;;15.75;13.88;;;12.90;99.90;;;;;;4973658;28;20030;-76
2021/05/14 00:28:05;;;;;;;16.35;14.40;;;12.90;99.90;;;;;;4967941;28;20035;-76
2021/05/14 00:30:31;;;;;;;18.17;14.88;;;12.90;99.90;;;;;;4970109;28;20483;-76
2021/05/14 00:32:56;;;;;;;16.55;14.90;;;12.90;99.90;;;;;;4970173;28;20027;-76
2021/05/14 00:35:22;;;;;;;18.02;16.10;;;12.80;99.90;;;;;;4979229;28;20039;-76
2021/05/14 00:37:48;;;;;;;18.88;16.88;;;12.80;99.90;;;;;;4975900;28;20141;-76
2021/05/14 00:40:14;;;;;;;17.38;15.57;;;12.80;99.90;;;;;;4962931;28;20038;-76
2021/05/14 00:42:40;;;;;;;16.95;15.18;;;12.80;99.90;;;;;;4973609;28;20027;-77
2021/05/14 00:45:07;;;;;;;18.88;16.23;;;12.80;99.90;;;;;;4979125;28;20475;-77
2021/05/14 00:47:33;;;;;;;18.98;16.45;;;12.50;99.90;;;;;;4967714;28;20114;-76
2021/05/14 00:49:59;;;;;;;18.33;15.40;;;12.60;99.90;;;;;;4972649;28;20471;-77
2021/05/14 00:52:24;;;;;;;17.27;15.43;;;12.50;99.90;;;;;;4969656;28;20031;-77
2021/05/14 00:54:51;;;;;;;17.08;15.27;;;12.40;99.90;;;;;;4980935;28;20039;-76
2021/05/14 00:57:17;;;;;;;19.67;17.00;;;12.30;99.90;;;;;;4968701;28;20022;-76
2021/05/14 00:59:47;;;;;;;18.85;16.77;;;12.30;99.90;;;;;;4972777;28;20402;-76
2021/05/14 01:02:15;;;;;;;18.45;15.50;;;12.30;99.90;;;;;;4968631;28;20026;-76
2021/05/14 01:04:42;;;;;;;18.48;16.23;;;12.30;99.90;;;;;;4965848;28;20404;-76
2021/05/14 01:07:08;;;;;;;20.20;17.77;;;12.30;99.90;;;;;;4961883;28;20372;-76
2021/05/14 01:09:34;;;;;;;17.80;15.90;;;12.40;99.90;;;;;;4964917;28;20097;-76
2021/05/14 01:12:00;;;;;;;20.77;18.50;;;12.40;99.90;;;;;;4958555;28;20047;-76
2021/05/14 01:14:26;;;;;;;21.70;18.42;;;12.10;99.90;;;;;;4967847;28;20035;-76
2021/05/14 01:16:51;;;;;;;22.02;18.55;;;12.10;99.90;;;;;;4965646;28;20023;-76
2021/05/14 01:19:17;;;;;;;23.20;18.92;;;12.20;99.90;;;;;;4977137;28;20054;-76
2021/05/14 01:21:43;;;;;;;23.27;18.92;;;12.20;99.90;;;;;;4972269;28;20037;-76
2021/05/14 01:24:09;;;;;;;24.88;18.60;;;12.00;99.90;;;;;;4969620;28;20034;-76
2021/05/14 01:26:35;;;;;;;22.80;18.25;;;12.00;99.90;;;;;;4969628;28;20063;-76
2021/05/14 01:29:03;;;;;;;19.75;17.00;;;12.10;99.90;;;;;;4963417;28;20109;-76
2021/05/14 01:31:29;;;;;;;18.42;16.38;;;12.10;99.90;;;;;;4969103;28;20034;-76
2021/05/14 01:33:55;;;;;;;21.20;18.08;;;12.10;99.90;;;;;;4972286;28;20503;-76
2021/05/14 01:36:21;;;;;;;20.42;18.25;;;12.10;99.90;;;;;;4972026;28;20042;-76
2021/05/14 01:38:46;;;;;;;20.95;18.63;;;12.10;99.90;;;;;;4964103;28;20023;-76
2021/05/14 01:41:12;;;;;;;20.15;18.00;;;12.10;99.90;;;;;;4972119;28;20030;-76
2021/05/14 01:43:38;;;;;;;19.75;17.45;;;12.00;99.90;;;;;;4967467;28;20109;-76
2021/05/14 01:46:07;;;;;;;23.63;19.65;;;12.10;99.90;;;;;;4967796;28;20026;-76
2021/05/14 01:48:33;;;;;;;21.63;19.30;;;12.00;99.90;;;;;;4963894;28;20042;-76
2021/05/14 01:51:14;;;;;;;22.90;18.38;;;12.00;99.90;;;;;;4972576;28;20023;-76
2021/05/14 01:53:40;;;;;;;23.60;19.90;;;11.90;99.90;;;;;;4975636;28;20111;-76
2021/05/14 01:56:06;;;;;;;22.50;19.90;;;11.90;99.90;;;;;;4974185;28;20547;-76
2021/05/14 01:58:32;;;;;;;20.67;18.10;;;11.90;99.90;;;;;;4972332;28;20035;-75
2021/05/14 02:00:57;;;;;;;22.35;19.38;;;11.80;99.90;;;;;;4971446;28;20088;-76
2021/05/14 02:03:23;;;;;;;21.38;18.80;;;11.70;99.90;;;;;;4966763;28;20113;-76
2021/05/14 02:05:49;;;;;;;24.02;20.67;;;11.70;99.90;;;;;;4967105;28;20019;-76
2021/05/14 02:08:14;;;;;;;23.27;19.52;;;11.60;99.90;;;;;;4975293;28;20029;-76
2021/05/14 02:10:40;;;;;;;21.67;18.27;;;11.50;99.90;;;;;;4967158;28;20034;-76
2021/05/14 02:13:06;;;;;;;24.75;21.63;;;11.40;99.90;;;;;;4961627;28;20495;-76
2021/05/14 02:15:32;;;;;;;23.75;19.20;;;11.50;99.90;;;;;;4963233;28;20746;-76
2021/05/14 02:17:59;;;;;;;22.27;18.98;;;11.40;99.90;;;;;;4970832;28;20034;-76
2021/05/14 02:20:24;;;;;;;22.55;18.75;;;11.40;99.90;;;;;;4964357;28;20027;-76
2021/05/14 02:22:50;;;;;;;24.27;19.48;;;11.50;99.90;;;;;;4959875;28;20395;-76
2021/05/14 02:25:16;;;;;;;21.83;17.92;;;11.50;99.90;;;;;;4968889;28;20023;-76
2021/05/14 02:27:41;;;;;;;20.13;17.52;;;11.50;99.90;;;;;;4972818;28;20038;-76
2021/05/14 02:30:07;;;;;;;21.20;17.20;;;11.50;99.90;;;;;;4971572;28;20025;-76
2021/05/14 02:32:33;;;;;;;21.83;18.48;;;11.40;99.90;;;;;;4973499;28;20030;-76
2021/05/14 02:34:59;;;;;;;20.98;17.85;;;11.40;99.90;;;;;;4962629;28;20045;-76
2021/05/14 02:37:25;;;;;;;23.00;18.48;;;11.40;99.90;;;;;;4967601;28;20471;-76
2021/05/14 02:39:51;;;;;;;22.98;18.73;;;11.40;99.90;;;;;;4969429;28;20506;-76
2021/05/14 02:42:17;;;;;;;27.55;18.80;;;11.30;99.90;;;;;;4960648;28;20028;-76
2021/05/14 02:44:43;;;;;;;24.20;19.73;;;11.30;99.90;;;;;;4966935;28;20042;-76
2021/05/14 02:47:08;;;;;;;22.90;19.30;;;11.30;99.90;;;;;;4959824;28;20027;-76
2021/05/14 02:49:35;;;;;;;23.17;18.25;;;11.30;99.90;;;;;;4971345;28;20376;-76
2021/05/14 02:52:01;;;;;;;21.27;17.65;;;11.30;99.90;;;;;;4973310;28;20419;-76
2021/05/14 02:54:27;;;;;;;24.40;18.65;;;11.20;99.90;;;;;;4972002;28;20031;-75
2021/05/14 02:56:52;;;;;;;23.52;18.95;;;11.20;99.90;;;;;;4974856;28;20027;-76
2021/05/14 02:59:19;;;;;;;20.90;17.50;;;11.20;99.90;;;;;;4973580;28;20045;-76
2021/05/14 03:01:45;;;;;;;22.25;17.92;;;11.10;99.90;;;;;;4968925;28;20027;-76
2021/05/14 03:04:11;;;;;;;23.13;18.27;;;11.00;99.90;;;;;;4967434;28;20086;-76
2021/05/14 03:06:36;;;;;;;22.15;17.92;;;10.90;99.90;;;;;;4974661;28;20110;-75
2021/05/14 03:09:02;;;;;;;21.92;18.67;;;10.90;99.90;;;;;;4963827;28;20027;-75
2021/05/14 03:11:28;;;;;;;25.45;18.30;;;10.90;99.90;;;;;;4971259;28;20122;-76
2021/05/14 03:13:54;;;;;;;24.60;19.13;;;10.90;99.90;;;;;;4972815;28;20503;-76
2021/05/14 03:16:21;;;;;;;23.30;19.50;;;11.00;99.90;;;;;;4965045;28;20035;-75
2021/05/14 03:18:47;;;;;;;20.40;18.20;;;11.00;99.90;;;;;;4971290;28;20022;-76
2021/05/14 03:21:12;;;;;;;23.30;19.73;;;11.00;99.90;;;;;;4973869;28;20046;-75
2021/05/14 03:23:39;;;;;;;23.92;19.63;;;11.00;99.90;;;;;;4958074;28;20082;-76
2021/05/14 03:26:05;;;;;;;24.77;20.75;;;10.90;99.90;;;;;;4974145;28;20088;-76
2021/05/14 03:28:31;;;;;;;23.05;19.15;;;11.00;99.90;;;;;;4972111;28;20058;-75
2021/05/14 03:30:57;;;;;;;23.85;19.63;;;11.00;99.90;;;;;;4959609;28;20114;-75
2021/05/14 03:33:22;;;;;;;24.87;19.13;;;10.90;99.90;;;;;;4970768;28;20491;-75
2021/05/14 03:35:49;;;;;;;22.75;18.85;;;10.80;99.90;;;;;;4969836;28;20252;-76
2021/05/14 03:38:15;;;;;;;21.27;18.20;;;10.90;99.90;;;;;;4975966;28;20062;-76
2021/05/14 03:40:43;;;;;;;23.15;19.63;;;10.60;99.90;;;;;;4975093;28;20430;-76
2021/05/14 03:43:08;;;;;;;23.77;18.63;;;10.60;99.90;;;;;;4971852;28;20033;-76
2021/05/14 03:45:34;;;;;;;26.15;20.70;;;10.60;99.90;;;;;;4968597;28;20395;-76
2021/05/14 03:48:00;;;;;;;24.80;19.70;;;10.50;99.90;;;;;;4966894;28;20042;-75
2021/05/14 03:50:31;;;;;;;24.15;19.50;;;10.50;99.90;;;;;;4979038;28;20535;-75
2021/05/14 03:52:57;;;;;;;23.70;19.55;;;10.60;99.90;;;;;;4968838;28;20421;-75
2021/05/14 03:55:23;;;;;;;24.50;20.25;;;10.50;99.90;;;;;;4971821;28;20045;-76
2021/05/14 03:57:48;;;;;;;26.90;20.80;;;10.60;99.90;;;;;;4973620;28;20375;-75
2021/05/14 04:00:15;;;;;;;25.67;20.15;;;10.60;99.90;;;;;;4966198;28;20042;-75
2021/05/14 04:02:40;;;;;;;25.67;20.08;;;10.60;99.90;;;;;;4962947;28;20019;-75
2021/05/14 04:05:07;;;;;;;22.98;18.48;;;10.50;99.90;;;;;;4972206;28;20023;-76
2021/05/14 04:07:32;;;;;;;21.80;18.80;;;10.60;99.90;;;;;;4972138;28;20034;-76
2021/05/14 04:10:14;;;;;;;25.85;19.58;;;10.60;99.90;;;;;;4974449;28;20043;-76
2021/05/14 04:15:07;;;;;;;24.27;19.30;;;10.60;99.90;;;;;;4970040;28;20055;-76
2021/05/14 04:17:33;;;;;;;25.48;18.88;;;10.70;99.90;;;;;;4965230;28;20415;-76
2021/05/14 04:19:59;;;;;;;28.15;19.17;;;10.70;99.90;;;;;;4969539;28;20026;-76
2021/05/14 04:22:26;;;;;;;24.27;19.80;;;10.80;99.90;;;;;;4974620;28;20045;-75
2021/05/14 04:24:51;;;;;;;26.13;20.25;;;10.90;99.90;;;;;;4966266;28;20835;-75
2021/05/14 04:27:17;;;;;;;27.88;21.50;;;11.00;99.90;;;;;;4970790;28;20531;-76
2021/05/14 04:29:43;;;;;;;31.10;22.30;;;11.00;99.90;;;;;;4966682;28;20093;-76
2021/05/14 04:32:09;;;;;;;26.77;21.08;;;11.00;99.90;;;;;;4965143;28;20031;-75
2021/05/14 04:34:35;;;;;;;28.48;21.75;;;11.00;99.90;;;;;;4969420;28;20122;-75
2021/05/14 04:37:00;;;;;;;25.75;19.45;;;11.00;99.90;;;;;;4969441;28;20038;-75
2021/05/14 04:39:26;;;;;;;22.88;17.58;;;11.10;99.90;;;;;;4974991;28;20511;-75
2021/05/14 04:41:52;;;;;;;26.35;19.88;;;11.10;99.90;;;;;;4971605;28;20029;-75
2021/05/14 04:44:17;;;;;;;21.75;18.05;;;11.10;99.90;;;;;;4960386;28;20031;-75
2021/05/14 04:46:44;;;;;;;22.92;18.10;;;11.20;99.90;;;;;;4973797;28;20433;-75
2021/05/14 04:49:10;;;;;;;22.40;18.05;;;11.20;99.90;;;;;;4972293;28;20065;-75
2021/05/14 04:51:35;;;;;;;27.30;20.80;;;11.30;99.90;;;;;;4971473;28;20396;-75
2021/05/14 04:54:01;;;;;;;24.85;18.35;;;11.30;99.90;;;;;;4966300;28;20047;-75
2021/05/14 04:56:27;;;;;;;24.08;19.15;;;11.40;99.90;;;;;;4967279;28;20055;-76
2021/05/14 04:58:53;;;;;;;26.10;19.80;;;11.50;99.90;;;;;;4969411;28;20514;-75
2021/05/14 05:01:19;;;;;;;23.88;20.40;;;11.60;99.90;;;;;;4963602;28;20074;-75
2021/05/14 05:03:52;;;;;;;23.70;19.25;;;11.60;99.90;;;;;;4974536;28;20511;-75
2021/05/14 05:06:18;;;;;;;25.42;19.23;;;11.60;99.90;;;;;;4966086;28;20114;-75
2021/05/14 05:08:44;;;;;;;27.65;19.70;;;11.70;99.90;;;;;;4969434;28;20165;-75
2021/05/14 05:11:10;;;;;;;23.98;19.13;;;11.70;99.90;;;;;;4969249;28;20027;-75
2021/05/14 05:13:36;;;;;;;27.30;20.17;;;11.70;99.90;;;;;;4973192;28;20042;-76
2021/05/14 05:16:02;;;;;;;26.10;19.33;;;11.80;99.90;;;;;;4969414;28;20387;-75
2021/05/14 05:18:28;;;;;;;26.20;20.20;;;11.80;99.90;;;;;;4974513;28;20121;-75
2021/05/14 05:20:54;;;;;;;26.20;19.85;;;11.80;99.90;;;;;;4963776;28;20098;-76
2021/05/14 05:23:20;;;;;;;28.65;22.50;;;11.90;99.90;;;;;;4968241;28;20034;-76
2021/05/14 05:25:46;;;;;;;26.48;21.02;;;11.90;99.90;;;;;;4970998;28;20101;-75
2021/05/14 05:28:12;;;;;;;24.13;18.60;;;11.90;99.90;;;;;;4968531;28;20045;-75
2021/05/14 05:30:38;;;;;;;23.48;18.58;;;12.00;99.90;;;;;;4971488;28;20472;-76
2021/05/14 05:33:04;;;;;;;22.85;17.35;;;12.00;99.90;;;;;;4965225;28;20032;-75
2021/05/14 05:35:30;;;;;;;20.52;16.52;;;12.10;99.90;;;;;;4972238;28;20038;-75
2021/05/14 05:37:55;;;;;;;20.27;15.95;;;12.10;99.90;;;;;;4959916;28;20094;-75
2021/05/14 05:40:21;;;;;;;20.70;16.00;;;12.10;99.90;;;;;;4966714;28;20035;-75
2021/05/14 05:42:47;;;;;;;19.67;15.90;;;12.10;99.90;;;;;;4960587;28;20018;-75
2021/05/14 05:45:12;;;;;;;24.08;18.10;;;12.20;99.90;;;;;;4963282;28;20030;-75
2021/05/14 05:47:39;;;;;;;23.20;17.60;;;12.20;99.90;;;;;;4966480;28;20399;-75
2021/05/14 05:50:05;;;;;;;20.00;14.45;;;12.20;99.90;;;;;;4962581;28;20026;-75
2021/05/14 05:52:31;;;;;;;22.25;14.27;;;12.30;99.90;;;;;;4961123;28;20045;-76
2021/05/14 05:54:57;;;;;;;18.13;14.55;;;12.30;99.90;;;;;;4960752;28;20038;-75
2021/05/14 05:57:22;;;;;;;21.02;14.07;;;12.30;99.90;;;;;;4967598;28;20081;-76
2021/05/14 05:59:48;;;;;;;17.15;13.57;;;12.40;99.90;;;;;;4962576;28;20034;-75
2021/05/14 06:02:14;;;;;;;17.10;13.52;;;12.40;99.90;;;;;;4962757;28;20418;-76
2021/05/14 06:04:40;;;;;;;18.42;14.00;;;12.40;99.90;;;;;;4960289;28;20031;-76
2021/05/14 06:07:06;;;;;;;19.92;13.52;;;12.50;99.90;;;;;;4963365;28;20086;-75
2021/05/14 06:09:31;;;;;;;17.40;13.65;;;12.50;99.90;;;;;;4963078;28;20566;-75
2021/05/14 06:11:57;;;;;;;21.00;16.90;;;12.50;99.90;;;;;;4959681;28;20058;-75
2021/05/14 06:14:23;;;;;;;20.60;16.70;;;12.60;99.90;;;;;;4966066;28;21334;-75
2021/05/14 06:16:49;;;;;;;22.35;17.75;;;12.60;99.90;;;;;;4962468;28;20071;-76
2021/05/14 06:19:18;;;;;;;23.58;18.58;;;12.60;99.90;;;;;;4964292;28;20127;-75
2021/05/14 06:21:46;;;;;;;21.73;16.48;;;12.70;99.90;;;;;;4962749;28;20423;-77
2021/05/14 06:24:15;;;;;;;22.15;18.23;;;12.70;99.90;;;;;;4961136;28;20023;-75
2021/05/14 06:26:41;;;;;;;21.25;15.90;;;12.80;99.90;;;;;;4964488;28;20432;-75
2021/05/14 06:29:07;;;;;;;23.45;18.13;;;12.80;99.90;;;;;;4963023;28;20030;-76
2021/05/14 06:31:33;;;;;;;21.52;16.77;;;12.90;99.90;;;;;;4961324;28;20043;-75
2021/05/14 06:33:59;;;;;;;18.02;15.00;;;13.00;99.90;;;;;;4962474;28;20036;-75
2021/05/14 06:36:25;;;;;;;18.27;14.43;;;13.00;99.90;;;;;;4963914;28;20078;-75
2021/05/14 06:38:50;;;;;;;22.20;15.63;;;13.00;99.90;;;;;;4971903;28;20019;-75
2021/05/14 06:41:16;;;;;;;15.90;13.07;;;13.20;99.90;;;;;;4969529;28;20023;-76
2021/05/14 06:43:41;;;;;;;15.77;11.45;;;13.20;99.90;;;;;;4966538;28;20030;-76
2021/05/14 06:46:07;;;;;;;13.23;9.93;;;13.30;99.90;;;;;;4966104;28;20031;-76
2021/05/14 06:48:33;;;;;;;17.05;12.07;;;13.50;99.90;;;;;;4964173;28;20042;-76
2021/05/14 06:50:59;;;;;;;12.75;10.32;;;13.60;99.90;;;;;;4966565;28;20031;-76
2021/05/14 06:53:25;;;;;;;18.17;12.25;;;13.80;99.90;;;;;;4971602;28;20042;-76
2021/05/14 06:55:52;;;;;;;13.05;11.30;;;13.90;99.90;;;;;;4969569;28;20041;-76
2021/05/14 06:58:18;;;;;;;13.98;12.48;;;14.10;99.90;;;;;;4971670;28;20031;-77
2021/05/14 07:00:43;;;;;;;18.75;12.45;;;14.10;99.90;;;;;;4965550;28;20019;-76
2021/05/14 07:03:09;;;;;;;15.80;12.93;;;14.20;99.90;;;;;;4961951;28;20432;-76
2021/05/14 07:05:35;;;;;;;17.75;12.88;;;14.30;99.90;;;;;;4962949;28;20070;-77
2021/05/14 07:08:02;;;;;;;17.27;13.27;;;14.30;99.90;;;;;;4973519;28;20038;-75
2021/05/14 07:10:28;;;;;;;17.40;12.65;;;14.40;99.90;;;;;;4968986;28;20113;-75
2021/05/14 07:12:54;;;;;;;15.05;13.05;;;14.40;99.90;;;;;;4964506;28;20062;-76
2021/05/14 07:15:20;;;;;;;20.98;14.20;;;14.50;99.90;;;;;;4965811;28;20042;-77
2021/05/14 07:17:46;;;;;;;18.58;13.20;;;14.60;99.90;;;;;;4971182;28;20114;-76
2021/05/14 07:20:12;;;;;;;13.18;10.63;;;14.60;99.90;;;;;;4962303;28;20046;-75
2021/05/14 07:22:40;;;;;;;12.70;10.48;;;14.70;99.90;;;;;;4970864;28;20015;-76
2021/05/14 07:25:06;;;;;;;11.30;9.55;;;14.70;99.90;;;;;;4973977;28;20034;-76
2021/05/14 07:27:32;;;;;;;13.10;9.68;;;14.80;99.90;;;;;;4970257;28;20110;-76
2021/05/14 07:29:58;;;;;;;10.30;8.93;;;14.80;99.90;;;;;;4966080;28;20110;-75
2021/05/14 07:32:24;;;;;;;12.82;9.93;;;14.90;99.90;;;;;;4970292;28;20070;-75
2021/05/14 07:34:52;;;;;;;9.73;8.35;;;15.00;99.90;;;;;;4967027;28;20096;-76
2021/05/14 07:37:18;;;;;;;10.27;9.15;;;15.00;99.90;;;;;;4965738;28;20112;-75
2021/05/14 07:39:44;;;;;;;9.63;7.95;;;15.10;99.90;;;;;;4968214;28;20086;-75
2021/05/14 07:42:09;;;;;;;8.88;7.68;;;15.10;99.90;;;;;;4956034;28;20034;-76
2021/05/14 07:44:35;;;;;;;14.55;7.65;;;15.10;99.90;;;;;;4955019;28;20028;-76
2021/05/14 07:47:01;;;;;;;9.00;6.72;;;15.20;99.90;;;;;;4962593;28;20027;-75
2021/05/14 07:49:27;;;;;;;14.88;6.97;;;15.20;99.90;;;;;;4972004;28;20085;-76
2021/05/14 07:51:52;;;;;;;10.48;7.25;;;15.30;99.90;;;;;;4974378;28;20041;-76
2021/05/14 07:54:18;;;;;;;9.73;6.72;;;15.20;99.90;;;;;;4969096;28;20042;-76
2021/05/14 07:56:43;;;;;;;7.80;6.50;;;15.20;99.90;;;;;;4968769;28;20031;-75
2021/05/14 07:59:11;;;;;;;10.27;6.18;;;15.20;99.90;;;;;;4968228;28;20534;-76
2021/05/14 08:01:40;;;;;;;6.15;5.50;;;15.30;99.90;;;;;;4969745;28;20475;-76
2021/05/14 08:04:06;;;;;;;9.05;6.00;;;15.40;99.90;;;;;;4978143;28;20030;-74
2021/05/14 08:06:32;;;;;;;5.15;4.63;;;15.40;99.90;;;;;;4967235;28;20542;-76
2021/05/14 08:09:00;;;;;;;5.20;4.75;;;15.50;99.90;;;;;;4966750;28;20035;-76
2021/05/14 08:11:26;;;;;;;5.13;4.63;;;15.50;99.90;;;;;;4969442;28;20062;-76
2021/05/14 08:13:51;;;;;;;5.57;4.55;;;15.60;99.90;;;;;;4965285;28;20682;-75
2021/05/14 08:16:17;;;;;;;6.18;4.80;;;15.70;99.90;;;;;;4973138;28;20487;-75
2021/05/14 08:18:43;;;;;;;6.55;5.07;;;15.70;99.90;;;;;;4966832;28;20031;-75
2021/05/14 08:21:09;;;;;;;6.32;4.57;;;15.50;99.90;;;;;;4961124;28;20038;-75
2021/05/14 08:23:34;;;;;;;5.57;5.03;;;15.50;99.90;;;;;;4958799;28;20026;-75
2021/05/14 08:26:00;;;;;;;7.03;4.72;;;15.60;99.90;;;;;;4957355;28;20434;-75
2021/05/14 08:28:25;;;;;;;7.38;4.70;;;15.80;99.90;;;;;;4961785;28;20018;-75
2021/05/14 08:30:51;;;;;;;6.65;4.95;;;15.80;99.90;;;;;;4960392;28;20040;-75
2021/05/14 08:33:18;;;;;;;4.80;4.30;;;15.80;99.90;;;;;;4961666;28;20489;-75
2021/05/14 08:35:44;;;;;;;7.22;4.80;;;15.90;99.90;;;;;;4961405;28;20039;-75
2021/05/14 08:38:10;;;;;;;8.27;4.43;;;16.00;99.90;;;;;;4965859;28;20027;-76
2021/05/14 08:40:40;;;;;;;4.20;3.80;;;16.10;99.90;;;;;;4965767;28;20027;-76
2021/05/14 08:43:07;;;;;;;6.28;3.40;;;16.30;99.90;;;;;;4965533;28;20028;-75
2021/05/14 08:45:33;;;;;;;4.05;3.38;;;16.50;99.90;;;;;;4965234;28;20455;-75
2021/05/14 08:47:59;;;;;;;4.07;3.67;;;16.50;99.90;;;;;;4959592;28;20082;-75
2021/05/14 08:50:29;;;;;;;4.18;3.70;;;16.60;99.90;;;;;;4960926;28;20483;-73
2021/05/14 08:52:55;;;;;;;3.95;3.50;;;16.60;99.90;;;;;;4969740;28;20034;-75
2021/05/14 08:55:24;;;;;;;5.45;4.18;;;16.80;99.90;;;;;;4971745;28;20047;-75
2021/05/14 08:57:51;;;;;;;5.10;3.88;;;17.00;99.90;;;;;;4972033;28;20062;-75
2021/05/14 09:00:17;;;;;;;5.68;3.30;;;17.00;99.90;;;;;;4954729;28;20484;-75
2021/05/14 09:02:43;;;;;;;3.28;2.60;;;17.50;99.90;;;;;;4965388;28;20025;-75
2021/05/14 09:05:32;;;;;;;6.25;3.40;;;17.90;99.90;;;;;;4967408;28;20414;-76
2021/05/14 09:07:59;;;;;;;3.75;2.78;;;18.10;99.90;;;;;;4961623;28;20059;-75
2021/05/14 09:10:27;;;;;;;5.32;2.80;;;18.20;99.90;;;;;;4962517;28;20031;-75
2021/05/14 09:12:54;;;;;;;5.22;2.95;;;18.10;99.90;;;;;;4965917;28;20035;-75
2021/05/14 09:15:30;;;;;;;4.25;2.45;;;18.50;99.90;;;;;;4954987;28;20043;-75
2021/05/14 09:18:13;;;;;;;3.17;2.88;;;18.60;99.90;;;;;;4963542;28;20639;-75
2021/05/14 09:20:51;;;;;;;;;;;18.80;99.90;;;;;;4959460;28;20033;-78
2021/05/14 09:23:16;;;;;;;2.65;2.15;;;18.60;99.90;;;;;;4958896;28;20008;-75
2021/05/14 09:25:54;;;;;;;2.47;1.70;;;18.80;99.90;;;;;;4957417;28;20155;-76
2021/05/14 09:28:26;;;;;;;3.38;2.35;;;18.80;99.60;;;;;;4961385;28;20023;-75
2021/05/14 09:31:09;;;;;;;3.88;2.60;;;18.70;99.90;;;;;;4968323;28;20069;-75
2021/05/14 09:33:37;;;;;;;3.03;2.50;;;18.50;99.90;;;;;;4966202;28;20031;-75
2021/05/14 09:36:07;;;;;;;3.28;2.97;;;18.50;99.90;;;;;;4962978;28;20076;-75
2021/05/14 09:38:45;;;;;;;3.13;2.75;;;18.80;99.90;;;;;;4966438;28;20022;-76
2021/05/14 09:41:23;;;;;;;6.40;3.22;;;19.20;99.90;;;;;;4968036;28;20037;-76
2021/05/14 09:44:04;;;;;;;5.13;3.00;;;19.30;98.40;;;;;;4956714;28;20030;-75
2021/05/14 09:46:41;;;;;;;3.45;2.80;;;19.00;97.50;;;;;;4965741;28;20019;-75
2021/05/14 09:49:16;;;;;;;4.60;3.05;;;19.00;99.00;;;;;;4958537;28;20171;-75
2021/05/14 09:51:49;;;;;;;3.95;2.70;;;18.80;98.30;;;;;;4967912;28;20035;-76
2021/05/14 09:54:33;;;;;;;5.53;2.40;;;18.90;98.70;;;;;;4971258;28;20046;-76
2021/05/14 09:59:48;;;;;;;2.72;2.08;;;18.60;98.30;;;;;;4963794;28;20031;-76
2021/05/14 10:02:29;;;;;;;3.15;2.28;;;18.60;98.90;;;;;;4958917;28;20084;-76
2021/05/14 10:04:56;;;;;;;7.05;3.28;;;18.60;99.20;;;;;;4963975;28;20050;-75
2021/05/14 10:07:25;;;;;;;2.78;2.00;;;18.50;98.20;;;;;;4964804;28;20035;-75
2021/05/14 10:09:58;;;;;;;5.55;2.10;;;18.50;99.60;;;;;;4973475;28;20483;-75
2021/05/14 10:12:25;;;;;;;3.08;2.40;;;18.60;99.20;;;;;;4969718;28;20106;-75
2021/05/14 10:14:51;;;;;;;4.38;2.22;;;18.50;98.00;;;;;;4966980;28;21259;-74
2021/05/14 10:17:17;;;;;;;3.17;2.10;;;18.40;97.80;;;;;;4960188;28;20023;-74
2021/05/14 10:19:44;;;;;;;4.95;2.10;;;18.30;98.40;;;;;;4958819;28;20046;-74
2021/05/14 10:22:10;;;;;;;2.95;2.00;;;18.30;99.30;;;;;;4965961;28;20027;-74
2021/05/14 10:24:39;;;;;;;4.57;2.40;;;18.30;98.80;;;;;;4963410;28;20096;-75
2021/05/14 10:27:27;;;;;;;3.22;2.30;;;18.40;99.60;;;;;;4965593;28;20031;-75
2021/05/14 10:29:59;;;;;;;3.22;2.22;;;18.30;99.50;;;;;;4972950;28;20109;-74
2021/05/14 10:32:43;;;;;;;4.05;2.03;;;18.30;99.90;;;;;;4970086;28;20025;-74
2021/05/14 10:35:12;;;;;;;2.78;1.88;;;18.40;99.70;;;;;;4970954;28;20046;-74
2021/05/14 10:37:48;;;;;;;3.90;2.72;;;18.40;99.60;;;;;;4971295;28;20030;-75
2021/05/14 10:40:29;;;;;;;5.20;2.50;;;18.60;99.90;;;;;;4964569;28;20149;-75
2021/05/14 10:43:03;;;;;;;3.40;2.10;;;18.70;99.80;;;;;;4973152;28;20023;-75
2021/05/14 10:45:48;;;;;;;3.58;2.03;;;18.80;99.20;;;;;;4971702;28;20038;-75
2021/05/14 10:48:22;;;;;;;2.50;2.00;;;19.10;99.30;;;;;;4974169;28;20031;-75
2021/05/14 10:51:00;;;;;;;3.35;1.95;;;19.20;98.70;;;;;;4975412;28;20023;-75
2021/05/14 10:53:36;;;;;;;2.88;1.60;;;19.40;97.60;;;;;;4973005;28;20031;-74
2021/05/14 10:56:11;;;;;;;2.53;1.92;;;19.40;96.80;;;;;;4978918;28;20092;-75
2021/05/14 10:58:48;;;;;;;3.13;1.92;;;19.60;97.50;;;;;;4967362;28;20081;-75
2021/05/14 11:01:45;;;;;;;1.55;1.42;;;19.70;96.70;;;;;;4975054;28;20027;-74
2021/05/14 11:04:13;;;;;;;2.53;1.20;;;19.50;95.30;;;;;;4976956;28;20077;-75
2021/05/14 11:06:48;;;;;;;2.10;1.00;;;19.50;94.80;;;;;;4973510;28;20054;-74
2021/05/14 11:09:16;;;;;;;1.88;1.00;;;19.30;92.50;;;;;;4969980;28;20151;-75
2021/05/14 11:12:00;;;;;;;2.35;1.10;;;19.60;93.80;;;;;;4970085;28;20396;-74
2021/05/14 11:14:32;;;;;;;1.98;1.15;;;19.70;94.20;;;;;;4969330;28;20391;-75
2021/05/14 11:16:58;;;;;;;3.13;1.30;;;19.70;93.70;;;;;;4968944;28;20042;-75
2021/05/14 11:19:28;;;;;;;5.88;1.65;;;19.80;93.20;;;;;;4972770;28;20046;-74
2021/05/14 11:21:59;;;;;;;1.73;1.50;;;19.80;93.40;;;;;;4972680;28;20084;-75
2021/05/14 11:24:49;;;;;;;7.35;1.52;;;19.60;92.70;;;;;;4968888;28;20031;-74
2021/05/14 11:27:26;;;;;;;1.63;1.52;;;19.70;93.00;;;;;;4973904;28;20023;-74
2021/05/14 11:29:54;;;;;;;4.30;1.35;;;20.10;93.10;;;;;;4965944;28;20062;-75
2021/05/14 11:32:20;;;;;;;2.13;1.40;;;20.20;92.40;;;;;;4972674;28;20034;-74
2021/05/14 11:34:53;;;;;;;3.17;1.52;;;20.10;92.20;;;;;;4973804;28;20039;-74
2021/05/14 11:37:30;;;;;;;5.20;2.05;;;20.00;92.90;;;;;;4970328;28;20500;-74
2021/05/14 11:39:57;;;;;;;16.30;2.20;;;19.90;93.80;;;;;;4949011;28;20025;-74
2021/05/14 11:42:25;;;;;;;12.43;1.90;;;19.80;93.50;;;;;;4969491;28;20023;-74
2021/05/14 11:44:57;;;;;;;2.17;1.67;;;19.70;92.50;;;;;;4965034;28;20386;-76
2021/05/14 11:47:23;;;;;;;;;;;19.60;93.00;;;;;;4966989;28;20038;-76
2021/05/14 11:49:49;;;;;;;1.30;1.20;;;19.50;93.30;;;;;;4976102;28;20278;-75
2021/05/14 11:52:14;;;;;;;2.95;1.65;;;19.50;93.80;;;;;;4968423;28;20483;-75
2021/05/14 11:54:40;;;;;;;2.35;1.38;;;19.40;94.10;;;;;;4964204;28;20043;-75
2021/05/14 11:57:06;;;;;;;4.82;1.48;;;19.30;94.30;;;;;;4971852;28;20498;-75
2021/05/14 11:59:32;;;;;;;13.27;1.42;;;19.30;94.60;;;;;;4953929;28;20625;-75
2021/05/14 12:01:57;;;;;;;4.72;1.90;;;19.30;95.50;;;;;;4975023;28;20030;-74
2021/05/14 12:04:23;;;;;;;3.92;1.33;;;19.20;96.20;;;;;;4982080;28;20443;-75
2021/05/14 12:06:50;;;;;;;3.10;1.50;;;19.00;97.50;;;;;;4975300;28;20069;-75
2021/05/14 12:09:16;;;;;;;4.28;1.40;;;19.00;98.60;;;;;;4972905;28;20027;-74
2021/05/14 12:11:44;;;;;;;11.18;1.98;;;18.80;99.60;;;;;;4948499;28;20030;-77
2021/05/14 12:14:12;;;;;;;6.15;2.00;;;18.50;99.90;;;;;;4969147;28;20035;-78
2021/05/14 12:16:38;;;;;;;2.22;1.50;;;18.30;99.90;;;;;;4963642;28;20562;-79
2021/05/14 12:19:04;;;;;;;5.43;1.60;;;18.00;99.90;;;;;;4964709;28;20164;-74
2021/05/14 12:21:32;;;;;;;2.38;1.05;;;17.60;99.90;;;;;;4963548;28;20057;-81
2021/05/14 12:24:02;;;;;;;2.35;1.48;;;17.50;99.90;;;;;;4969838;28;20034;-81
2021/05/14 12:26:30;;;;;;;2.45;1.52;;;17.40;99.90;;;;;;4966902;28;20036;-73
2021/05/14 12:28:55;;;;;;;2.15;1.70;;;17.30;99.90;;;;;;4973948;28;20526;-76
2021/05/14 12:31:27;;;;;;;5.20;1.67;;;17.20;99.90;;;;;;4961177;28;20039;-74
2021/05/14 12:33:55;;;;;;;5.80;1.90;;;17.10;99.90;;;;;;4970018;28;20034;-73
2021/05/14 12:36:35;;;;;;;2.38;1.48;;;17.10;99.90;;;;;;4967791;28;20082;-75
2021/05/14 12:39:05;;;;;;;2.50;1.80;;;16.80;99.90;;;;;;4968025;28;20023;-78
2021/05/14 12:41:33;;;;;;;5.72;2.35;;;16.60;99.90;;;;;;4972553;28;20043;-79
2021/05/14 12:44:08;;;;;;;6.53;2.20;;;16.70;99.90;;;;;;4970917;28;20023;-73